sensor_id;sensor_type;location;lat;lon;timestamp;P1;durP1;ratioP1;P2;durP2;ratioP2
15498;SDS011;7851;52.260;6.030;2022-12-18T00:03:14;42.5;;;29.9;;
15498;SDS011;7851;52.260;6.030;2022-12-18T00:03:14;51.3;;;30.8;;
15498;SDS011;7851;52.260;6.030;2022-12-18T00:03:15;49;;;31.4;;
15498;SDS011;7851;52.260;6.030;2022-12-18T00:03:16;44.1;;;29.4;;
15498;SDS011;7851;52.260;6.030;2022-12-18T00:04:21;45.9;;;28.5;;
15498;SDS011;7851;52.260;6.030;2022-12-18T00:05:20;55.2;;;29;;
15498;SDS011;7851;52.260;6.030;2022-12-18T00:06:21;46.6;;;30.6;;
15498;SDS011;7851;52.260;6.030;2022-12-18T00:07:20;39.8;;;28.7;;
15498;SDS011;7851;52.260;6.030;2022-12-18T00:08:20;41.4;;;29.8;;
15498;SDS011;7851;52.260;6.030;2022-12-18T00:09:22;46.4;;;31.3;;
15498;SDS011;7851;52.260;6.030;2022-12-18T00:10:25;49.7;;;29.8;;
15498;SDS011;7851;52.260;6.030;2022-12-18T00:11:26;48.8;;;30.9;;
15498;SDS011;7851;52.260;6.030;2022-12-18T00:12:25;40;;;28.1;;
15498;SDS011;7851;52.260;6.030;2022-12-18T00:13:25;57.6;;;31.6;;
15498;SDS011;7851;52.260;6.030;2022-12-18T00:14:25;45;;;30.4;;
15498;SDS011;7851;52.260;6.030;2022-12-18T00:15:25;47.4;;;29.8;;
15498;SDS011;7851;52.260;6.030;2022-12-18T00:16:25;42.6;;;30.4;;
15498;SDS011;7851;52.260;6.030;2022-12-18T00:17:25;41.2;;;30;;
15498;SDS011;7851;52.260;6.030;2022-12-18T00:18:25;44.6;;;30.4;;
15498;SDS011;7851;52.260;6.030;2022-12-18T00:19:25;63.8;;;33.5;;
15498;SDS011;7851;52.260;6.030;2022-12-18T00:20:25;47.7;;;34.5;;
15498;SDS011;7851;52.260;6.030;2022-12-18T00:21:26;47.2;;;31.3;;
15498;SDS011;7851;52.260;6.030;2022-12-18T00:22:25;52;;;32.4;;
15498;SDS011;7851;52.260;6.030;2022-12-18T00:23:25;53.5;;;32.5;;
15498;SDS011;7851;52.260;6.030;2022-12-18T00:24:25;54;;;30.3;;
15498;SDS011;7851;52.260;6.030;2022-12-18T00:25:25;49.6;;;31.1;;
15498;SDS011;7851;52.260;6.030;2022-12-18T00:26:26;43.3;;;30.1;;
15498;SDS011;7851;52.260;6.030;2022-12-18T00:27:25;46.9;;;32;;
15498;SDS011;7851;52.260;6.030;2022-12-18T00:28:25;55;;;32.6;;
15498;SDS011;7851;52.260;6.030;2022-12-18T00:29:26;64.7;;;33.8;;
15498;SDS011;7851;52.260;6.030;2022-12-18T00:30:26;53.4;;;32;;
15498;SDS011;7851;52.260;6.030;2022-12-18T00:31:26;53.7;;;33.5;;
15498;SDS011;7851;52.260;6.030;2022-12-18T00:32:26;75.8;;;33.7;;
15498;SDS011;7851;52.260;6.030;2022-12-18T00:33:26;50.4;;;33.3;;
15498;SDS011;7851;52.260;6.030;2022-12-18T00:34:26;52.1;;;33.2;;
15498;SDS011;7851;52.260;6.030;2022-12-18T00:35:26;47.8;;;32;;
15498;SDS011;7851;52.260;6.030;2022-12-18T00:36:27;66.1;;;34.1;;
15498;SDS011;7851;52.260;6.030;2022-12-18T00:37:26;61.7;;;33.7;;
15498;SDS011;7851;52.260;6.030;2022-12-18T00:38:26;61.9;;;33;;
15498;SDS011;7851;52.260;6.030;2022-12-18T00:39:26;47.9;;;31.7;;
15498;SDS011;7851;52.260;6.030;2022-12-18T00:40:26;47.3;;;31.2;;
15498;SDS011;7851;52.260;6.030;2022-12-18T00:41:26;52;;;31.7;;
15498;SDS011;7851;52.260;6.030;2022-12-18T00:42:26;49.6;;;29.4;;
15498;SDS011;7851;52.260;6.030;2022-12-18T00:43:26;53.4;;;31.9;;
15498;SDS011;7851;52.260;6.030;2022-12-18T00:44:26;55;;;32.8;;
15498;SDS011;7851;52.260;6.030;2022-12-18T00:45:26;50.5;;;32.8;;
15498;SDS011;7851;52.260;6.030;2022-12-18T00:46:26;51.3;;;33.5;;
15498;SDS011;7851;52.260;6.030;2022-12-18T00:47:26;46.9;;;30;;
15498;SDS011;7851;52.260;6.030;2022-12-18T00:48:26;51.8;;;31.2;;
15498;SDS011;7851;52.260;6.030;2022-12-18T00:49:26;56.8;;;31.9;;
15498;SDS011;7851;52.260;6.030;2022-12-18T00:50:26;45.1;;;29.7;;
15498;SDS011;7851;52.260;6.030;2022-12-18T00:51:26;51.4;;;30.4;;
15498;SDS011;7851;52.260;6.030;2022-12-18T00:52:26;46.2;;;30;;
15498;SDS011;7851;52.260;6.030;2022-12-18T00:53:26;53.4;;;31.3;;
15498;SDS011;7851;52.260;6.030;2022-12-18T00:54:26;44.5;;;30.2;;
15498;SDS011;7851;52.260;6.030;2022-12-18T00:55:26;55.1;;;31.6;;
15498;SDS011;7851;52.260;6.030;2022-12-18T00:56:26;45.6;;;29.8;;
15498;SDS011;7851;52.260;6.030;2022-12-18T00:57:26;57.4;;;30.4;;
15498;SDS011;7851;52.260;6.030;2022-12-18T00:58:26;49.8;;;29.5;;
15498;SDS011;7851;52.260;6.030;2022-12-18T00:59:26;45;;;29.3;;
15498;SDS011;7851;52.260;6.030;2022-12-18T01:00:26;45.3;;;29.8;;
15498;SDS011;7851;52.260;6.030;2022-12-18T01:01:26;47.2;;;30.9;;
15498;SDS011;7851;52.260;6.030;2022-12-18T01:02:26;49;;;30.3;;
15498;SDS011;7851;52.260;6.030;2022-12-18T01:03:26;45.4;;;29.7;;
15498;SDS011;7851;52.260;6.030;2022-12-18T01:04:26;43.9;;;29.3;;
15498;SDS011;7851;52.260;6.030;2022-12-18T01:05:26;49.4;;;31.1;;
15498;SDS011;7851;52.260;6.030;2022-12-18T01:06:26;48.3;;;30.8;;
15498;SDS011;7851;52.260;6.030;2022-12-18T01:07:26;60;;;31;;
15498;SDS011;7851;52.260;6.030;2022-12-18T01:08:26;48.7;;;29.8;;
15498;SDS011;7851;52.260;6.030;2022-12-18T01:09:26;47.7;;;32;;
15498;SDS011;7851;52.260;6.030;2022-12-18T01:10:26;53.5;;;30.9;;
15498;SDS011;7851;52.260;6.030;2022-12-18T01:11:26;37.9;;;28.1;;
15498;SDS011;7851;52.260;6.030;2022-12-18T01:12:26;42.8;;;28.9;;
15498;SDS011;7851;52.260;6.030;2022-12-18T01:13:26;53.8;;;29.6;;
15498;SDS011;7851;52.260;6.030;2022-12-18T01:14:26;43.6;;;28.5;;
15498;SDS011;7851;52.260;6.030;2022-12-18T01:15:26;58.1;;;29.9;;
15498;SDS011;7851;52.260;6.030;2022-12-18T01:16:26;47.3;;;29.2;;
15498;SDS011;7851;52.260;6.030;2022-12-18T01:17:26;47.8;;;28.1;;
15498;SDS011;7851;52.260;6.030;2022-12-18T01:18:26;40.3;;;28.6;;
15498;SDS011;7851;52.260;6.030;2022-12-18T01:19:26;51.7;;;28.7;;
15498;SDS011;7851;52.260;6.030;2022-12-18T01:20:26;39.5;;;27.7;;
15498;SDS011;7851;52.260;6.030;2022-12-18T01:21:26;39.6;;;27.4;;
15498;SDS011;7851;52.260;6.030;2022-12-18T01:22:26;43.4;;;29.3;;
15498;SDS011;7851;52.260;6.030;2022-12-18T01:23:26;39.9;;;25.7;;
15498;SDS011;7851;52.260;6.030;2022-12-18T01:24:26;40.9;;;26.2;;
15498;SDS011;7851;52.260;6.030;2022-12-18T01:25:26;42.9;;;26.8;;
15498;SDS011;7851;52.260;6.030;2022-12-18T01:26:26;50.9;;;28.2;;
15498;SDS011;7851;52.260;6.030;2022-12-18T01:27:26;38.4;;;26.8;;
15498;SDS011;7851;52.260;6.030;2022-12-18T01:28:26;39.7;;;26.6;;
15498;SDS011;7851;52.260;6.030;2022-12-18T01:29:26;39.3;;;27;;
15498;SDS011;7851;52.260;6.030;2022-12-18T01:30:26;43.3;;;26.7;;
15498;SDS011;7851;52.260;6.030;2022-12-18T01:31:27;39.8;;;27.2;;
15498;SDS011;7851;52.260;6.030;2022-12-18T01:32:28;39.9;;;26.8;;
15498;SDS011;7851;52.260;6.030;2022-12-18T01:33:26;45.5;;;26.7;;
15498;SDS011;7851;52.260;6.030;2022-12-18T01:34:26;41.4;;;25.6;;
15498;SDS011;7851;52.260;6.030;2022-12-18T01:35:26;38.2;;;26.3;;
15498;SDS011;7851;52.260;6.030;2022-12-18T01:36:27;39.9;;;25.6;;
15498;SDS011;7851;52.260;6.030;2022-12-18T01:37:26;39;;;24.9;;
15498;SDS011;7851;52.260;6.030;2022-12-18T01:38:26;37.1;;;25.4;;
15498;SDS011;7851;52.260;6.030;2022-12-18T01:39:26;45.3;;;26.2;;
15498;SDS011;7851;52.260;6.030;2022-12-18T01:40:26;42;;;26.4;;
15498;SDS011;7851;52.260;6.030;2022-12-18T01:41:27;41.5;;;26.7;;
15498;SDS011;7851;52.260;6.030;2022-12-18T01:42:26;38;;;26.6;;
15498;SDS011;7851;52.260;6.030;2022-12-18T01:43:40;37.4;;;25.4;;
15498;SDS011;7851;52.260;6.030;2022-12-18T01:45:26;39.1;;;23.5;;
15498;SDS011;7851;52.260;6.030;2022-12-18T01:46:26;50.1;;;25.7;;
15498;SDS011;7851;52.260;6.030;2022-12-18T01:47:28;40.5;;;25.1;;
15498;SDS011;7851;52.260;6.030;2022-12-18T01:48:26;34.5;;;25;;
15498;SDS011;7851;52.260;6.030;2022-12-18T01:49:26;40.4;;;25.1;;
15498;SDS011;7851;52.260;6.030;2022-12-18T01:50:27;52.2;;;26.3;;
15498;SDS011;7851;52.260;6.030;2022-12-18T01:51:26;37.5;;;25.1;;
15498;SDS011;7851;52.260;6.030;2022-12-18T01:52:27;35.6;;;23.8;;
15498;SDS011;7851;52.260;6.030;2022-12-18T01:53:26;38.9;;;25.1;;
15498;SDS011;7851;52.260;6.030;2022-12-18T01:54:27;44.3;;;26.1;;
15498;SDS011;7851;52.260;6.030;2022-12-18T01:55:28;39.6;;;24.7;;
15498;SDS011;7851;52.260;6.030;2022-12-18T01:56:26;40.1;;;26.2;;
15498;SDS011;7851;52.260;6.030;2022-12-18T01:57:26;37.6;;;26.4;;
15498;SDS011;7851;52.260;6.030;2022-12-18T01:58:27;49.5;;;26.3;;
15498;SDS011;7851;52.260;6.030;2022-12-18T01:59:26;40;;;26.2;;
15498;SDS011;7851;52.260;6.030;2022-12-18T02:00:26;35.4;;;24.2;;
15498;SDS011;7851;52.260;6.030;2022-12-18T02:01:26;42.8;;;25;;
15498;SDS011;7851;52.260;6.030;2022-12-18T02:02:26;37.5;;;25.4;;
15498;SDS011;7851;52.260;6.030;2022-12-18T02:03:26;50.2;;;26.5;;
15498;SDS011;7851;52.260;6.030;2022-12-18T02:04:26;37.5;;;25.2;;
15498;SDS011;7851;52.260;6.030;2022-12-18T02:05:29;38.6;;;25;;
15498;SDS011;7851;52.260;6.030;2022-12-18T02:06:27;44.7;;;25.1;;
15498;SDS011;7851;52.260;6.030;2022-12-18T02:07:29;45.4;;;25.2;;
15498;SDS011;7851;52.260;6.030;2022-12-18T02:08:27;34.7;;;24;;
15498;SDS011;7851;52.260;6.030;2022-12-18T02:09:27;35.8;;;24;;
15498;SDS011;7851;52.260;6.030;2022-12-18T02:10:27;39.7;;;25.7;;
15498;SDS011;7851;52.260;6.030;2022-12-18T02:11:29;38.5;;;24.7;;
15498;SDS011;7851;52.260;6.030;2022-12-18T02:12:27;33.9;;;24.6;;
15498;SDS011;7851;52.260;6.030;2022-12-18T02:13:27;36.6;;;24.8;;
15498;SDS011;7851;52.260;6.030;2022-12-18T02:14:28;35.1;;;25;;
15498;SDS011;7851;52.260;6.030;2022-12-18T02:15:27;44.3;;;25;;
15498;SDS011;7851;52.260;6.030;2022-12-18T02:16:28;35.6;;;24;;
15498;SDS011;7851;52.260;6.030;2022-12-18T02:17:27;42.3;;;24.7;;
15498;SDS011;7851;52.260;6.030;2022-12-18T02:18:27;35.2;;;24.4;;
15498;SDS011;7851;52.260;6.030;2022-12-18T02:19:37;37.4;;;22.6;;
15498;SDS011;7851;52.260;6.030;2022-12-18T02:20:28;34.7;;;23.2;;
15498;SDS011;7851;52.260;6.030;2022-12-18T02:21:28;37;;;23.5;;
15498;SDS011;7851;52.260;6.030;2022-12-18T02:22:27;32.4;;;22.6;;
15498;SDS011;7851;52.260;6.030;2022-12-18T02:23:32;33.6;;;23.1;;
15498;SDS011;7851;52.260;6.030;2022-12-18T02:24:28;30.7;;;22.2;;
15498;SDS011;7851;52.260;6.030;2022-12-18T02:25:30;29.5;;;21.6;;
15498;SDS011;7851;52.260;6.030;2022-12-18T02:26:26;36.9;;;22.8;;
15498;SDS011;7851;52.260;6.030;2022-12-18T02:27:26;41.3;;;23.9;;
15498;SDS011;7851;52.260;6.030;2022-12-18T02:28:28;34.7;;;23.4;;
15498;SDS011;7851;52.260;6.030;2022-12-18T02:29:27;34.8;;;23;;
15498;SDS011;7851;52.260;6.030;2022-12-18T02:30:26;31.8;;;22.8;;
15498;SDS011;7851;52.260;6.030;2022-12-18T02:31:27;48;;;23.7;;
15498;SDS011;7851;52.260;6.030;2022-12-18T02:32:27;33.1;;;22.4;;
15498;SDS011;7851;52.260;6.030;2022-12-18T02:33:26;35.8;;;23.3;;
15498;SDS011;7851;52.260;6.030;2022-12-18T02:34:27;39.4;;;23.1;;
15498;SDS011;7851;52.260;6.030;2022-12-18T02:35:27;33.2;;;21.9;;
15498;SDS011;7851;52.260;6.030;2022-12-18T02:36:26;37.1;;;23.2;;
15498;SDS011;7851;52.260;6.030;2022-12-18T02:37:26;29.7;;;22.9;;
15498;SDS011;7851;52.260;6.030;2022-12-18T02:38:26;41.4;;;22.6;;
15498;SDS011;7851;52.260;6.030;2022-12-18T02:39:26;36.3;;;23.3;;
15498;SDS011;7851;52.260;6.030;2022-12-18T02:40:26;28.8;;;22.1;;
15498;SDS011;7851;52.260;6.030;2022-12-18T02:41:26;30.6;;;21.3;;
15498;SDS011;7851;52.260;6.030;2022-12-18T02:42:26;28.4;;;21;;
15498;SDS011;7851;52.260;6.030;2022-12-18T02:43:26;30.8;;;21.9;;
15498;SDS011;7851;52.260;6.030;2022-12-18T02:44:26;39.8;;;21.5;;
15498;SDS011;7851;52.260;6.030;2022-12-18T02:45:26;26.9;;;20.4;;
15498;SDS011;7851;52.260;6.030;2022-12-18T02:46:28;27.6;;;22.1;;
15498;SDS011;7851;52.260;6.030;2022-12-18T02:47:27;33.6;;;21.2;;
15498;SDS011;7851;52.260;6.030;2022-12-18T02:48:27;48.5;;;23.7;;
15498;SDS011;7851;52.260;6.030;2022-12-18T02:49:28;35.9;;;23;;
15498;SDS011;7851;52.260;6.030;2022-12-18T02:50:26;35.6;;;22.9;;
15498;SDS011;7851;52.260;6.030;2022-12-18T02:51:28;33.7;;;21.3;;
15498;SDS011;7851;52.260;6.030;2022-12-18T02:52:28;31.1;;;22.7;;
15498;SDS011;7851;52.260;6.030;2022-12-18T02:53:27;32.8;;;21.6;;
15498;SDS011;7851;52.260;6.030;2022-12-18T02:54:31;33;;;22.2;;
15498;SDS011;7851;52.260;6.030;2022-12-18T02:55:28;33.3;;;23.4;;
15498;SDS011;7851;52.260;6.030;2022-12-18T02:56:27;32.1;;;22.3;;
15498;SDS011;7851;52.260;6.030;2022-12-18T02:57:29;35.6;;;21.8;;
15498;SDS011;7851;52.260;6.030;2022-12-18T02:58:27;34.4;;;21.9;;
15498;SDS011;7851;52.260;6.030;2022-12-18T02:59:28;32.7;;;23.2;;
15498;SDS011;7851;52.260;6.030;2022-12-18T03:00:28;29;;;21.7;;
15498;SDS011;7851;52.260;6.030;2022-12-18T03:01:28;30.5;;;22;;
15498;SDS011;7851;52.260;6.030;2022-12-18T03:02:26;31.4;;;21.5;;
15498;SDS011;7851;52.260;6.030;2022-12-18T03:03:27;31.6;;;21.6;;
15498;SDS011;7851;52.260;6.030;2022-12-18T03:04:26;35.8;;;22;;
15498;SDS011;7851;52.260;6.030;2022-12-18T03:05:28;40.6;;;22.6;;
15498;SDS011;7851;52.260;6.030;2022-12-18T03:06:26;32.1;;;22.4;;
15498;SDS011;7851;52.260;6.030;2022-12-18T03:07:27;32.4;;;21.8;;
15498;SDS011;7851;52.260;6.030;2022-12-18T03:08:27;41.7;;;23.8;;
15498;SDS011;7851;52.260;6.030;2022-12-18T03:09:27;29.3;;;21;;
15498;SDS011;7851;52.260;6.030;2022-12-18T03:10:26;28.3;;;20.8;;
15498;SDS011;7851;52.260;6.030;2022-12-18T03:11:26;35.5;;;21.9;;
15498;SDS011;7851;52.260;6.030;2022-12-18T03:12:28;30.7;;;21.7;;
15498;SDS011;7851;52.260;6.030;2022-12-18T03:13:31;32.1;;;21.8;;
15498;SDS011;7851;52.260;6.030;2022-12-18T03:14:26;27.7;;;20.6;;
15498;SDS011;7851;52.260;6.030;2022-12-18T03:15:27;28.9;;;20.4;;
15498;SDS011;7851;52.260;6.030;2022-12-18T03:16:27;33.3;;;21.3;;
15498;SDS011;7851;52.260;6.030;2022-12-18T03:17:26;38.9;;;21.7;;
15498;SDS011;7851;52.260;6.030;2022-12-18T03:18:27;28.7;;;20.1;;
15498;SDS011;7851;52.260;6.030;2022-12-18T03:19:27;40.2;;;20.5;;
15498;SDS011;7851;52.260;6.030;2022-12-18T03:20:26;38;;;20.8;;
15498;SDS011;7851;52.260;6.030;2022-12-18T03:21:28;30.9;;;21.4;;
15498;SDS011;7851;52.260;6.030;2022-12-18T03:22:26;33.2;;;21.1;;
15498;SDS011;7851;52.260;6.030;2022-12-18T03:23:27;34.3;;;22;;
15498;SDS011;7851;52.260;6.030;2022-12-18T03:24:26;30.9;;;21.3;;
15498;SDS011;7851;52.260;6.030;2022-12-18T03:25:26;32.4;;;21.8;;
15498;SDS011;7851;52.260;6.030;2022-12-18T03:26:26;31;;;20;;
15498;SDS011;7851;52.260;6.030;2022-12-18T03:27:26;31.4;;;21.2;;
15498;SDS011;7851;52.260;6.030;2022-12-18T03:28:26;32.6;;;21.6;;
15498;SDS011;7851;52.260;6.030;2022-12-18T03:29:26;30.1;;;18.9;;
15498;SDS011;7851;52.260;6.030;2022-12-18T03:30:26;26.5;;;19.7;;
15498;SDS011;7851;52.260;6.030;2022-12-18T03:31:26;32.8;;;20.6;;
15498;SDS011;7851;52.260;6.030;2022-12-18T03:32:27;32.6;;;21;;
15498;SDS011;7851;52.260;6.030;2022-12-18T03:33:27;30.4;;;19.3;;
15498;SDS011;7851;52.260;6.030;2022-12-18T03:34:28;29.7;;;19.7;;
15498;SDS011;7851;52.260;6.030;2022-12-18T03:35:26;28.5;;;19.5;;
15498;SDS011;7851;52.260;6.030;2022-12-18T03:36:26;23.4;;;18.7;;
15498;SDS011;7851;52.260;6.030;2022-12-18T03:37:26;29.7;;;20.5;;
15498;SDS011;7851;52.260;6.030;2022-12-18T03:38:26;32.6;;;19.7;;
15498;SDS011;7851;52.260;6.030;2022-12-18T03:39:26;30.2;;;19.9;;
15498;SDS011;7851;52.260;6.030;2022-12-18T03:40:26;32.4;;;20.6;;
15498;SDS011;7851;52.260;6.030;2022-12-18T03:41:27;28.2;;;20;;
15498;SDS011;7851;52.260;6.030;2022-12-18T03:42:27;24.2;;;18.4;;
15498;SDS011;7851;52.260;6.030;2022-12-18T03:43:30;33.7;;;21.1;;
15498;SDS011;7851;52.260;6.030;2022-12-18T03:44:26;28.9;;;18.4;;
15498;SDS011;7851;52.260;6.030;2022-12-18T03:45:27;25.7;;;18.9;;
15498;SDS011;7851;52.260;6.030;2022-12-18T03:46:26;34.2;;;20.1;;
15498;SDS011;7851;52.260;6.030;2022-12-18T03:47:27;32.9;;;19.9;;
15498;SDS011;7851;52.260;6.030;2022-12-18T03:48:27;29.8;;;19.9;;
15498;SDS011;7851;52.260;6.030;2022-12-18T03:49:27;36;;;20.3;;
15498;SDS011;7851;52.260;6.030;2022-12-18T03:50:28;29.7;;;20.3;;
15498;SDS011;7851;52.260;6.030;2022-12-18T03:51:26;26.5;;;18.1;;
15498;SDS011;7851;52.260;6.030;2022-12-18T03:52:26;27.6;;;19.5;;
15498;SDS011;7851;52.260;6.030;2022-12-18T03:53:28;33.1;;;19.7;;
15498;SDS011;7851;52.260;6.030;2022-12-18T03:54:26;25.8;;;19.3;;
15498;SDS011;7851;52.260;6.030;2022-12-18T03:55:26;29.9;;;20.2;;
15498;SDS011;7851;52.260;6.030;2022-12-18T03:56:26;32.5;;;19.2;;
15498;SDS011;7851;52.260;6.030;2022-12-18T03:57:27;29.2;;;19.7;;
15498;SDS011;7851;52.260;6.030;2022-12-18T03:58:26;24.1;;;18.7;;
15498;SDS011;7851;52.260;6.030;2022-12-18T03:59:26;27.4;;;18.9;;
15498;SDS011;7851;52.260;6.030;2022-12-18T04:00:26;35.7;;;19.8;;
15498;SDS011;7851;52.260;6.030;2022-12-18T04:01:28;35.2;;;20.5;;
15498;SDS011;7851;52.260;6.030;2022-12-18T04:02:26;24.7;;;18.2;;
15498;SDS011;7851;52.260;6.030;2022-12-18T04:03:26;26.5;;;19.1;;
15498;SDS011;7851;52.260;6.030;2022-12-18T04:04:26;29.4;;;19;;
15498;SDS011;7851;52.260;6.030;2022-12-18T04:05:26;34.7;;;19.5;;
15498;SDS011;7851;52.260;6.030;2022-12-18T04:06:26;35.6;;;19.7;;
15498;SDS011;7851;52.260;6.030;2022-12-18T04:07:26;28.5;;;19.7;;
15498;SDS011;7851;52.260;6.030;2022-12-18T04:08:26;30.4;;;19.3;;
15498;SDS011;7851;52.260;6.030;2022-12-18T04:09:26;29.8;;;20.3;;
15498;SDS011;7851;52.260;6.030;2022-12-18T04:10:26;29.8;;;20.4;;
15498;SDS011;7851;52.260;6.030;2022-12-18T04:11:26;31.8;;;21;;
15498;SDS011;7851;52.260;6.030;2022-12-18T04:12:26;24;;;18.7;;
15498;SDS011;7851;52.260;6.030;2022-12-18T04:13:27;25.9;;;18.9;;
15498;SDS011;7851;52.260;6.030;2022-12-18T04:14:26;35.5;;;19.6;;
15498;SDS011;7851;52.260;6.030;2022-12-18T04:15:26;27;;;18.9;;
15498;SDS011;7851;52.260;6.030;2022-12-18T04:16:26;31;;;19.2;;
15498;SDS011;7851;52.260;6.030;2022-12-18T04:17:26;28.8;;;18.5;;
15498;SDS011;7851;52.260;6.030;2022-12-18T04:18:26;39.9;;;20;;
15498;SDS011;7851;52.260;6.030;2022-12-18T04:19:26;35.4;;;20.8;;
15498;SDS011;7851;52.260;6.030;2022-12-18T04:20:26;29.7;;;18.8;;
15498;SDS011;7851;52.260;6.030;2022-12-18T04:21:26;30.6;;;18.6;;
15498;SDS011;7851;52.260;6.030;2022-12-18T04:22:26;30.8;;;18.3;;
15498;SDS011;7851;52.260;6.030;2022-12-18T04:23:26;30.5;;;17.4;;
15498;SDS011;7851;52.260;6.030;2022-12-18T04:24:26;29.7;;;18.9;;
15498;SDS011;7851;52.260;6.030;2022-12-18T04:25:26;25.6;;;17.8;;
15498;SDS011;7851;52.260;6.030;2022-12-18T04:26:26;27.6;;;18.4;;
15498;SDS011;7851;52.260;6.030;2022-12-18T04:27:26;26.9;;;18.5;;
15498;SDS011;7851;52.260;6.030;2022-12-18T04:28:26;25.8;;;18;;
15498;SDS011;7851;52.260;6.030;2022-12-18T04:29:26;24.9;;;18;;
15498;SDS011;7851;52.260;6.030;2022-12-18T04:30:26;21.8;;;17.2;;
15498;SDS011;7851;52.260;6.030;2022-12-18T04:31:26;26.4;;;18.1;;
15498;SDS011;7851;52.260;6.030;2022-12-18T04:32:26;25.1;;;17.8;;
15498;SDS011;7851;52.260;6.030;2022-12-18T04:33:26;29.9;;;19.2;;
15498;SDS011;7851;52.260;6.030;2022-12-18T04:34:26;26.3;;;18;;
15498;SDS011;7851;52.260;6.030;2022-12-18T04:35:26;25.7;;;17.4;;
15498;SDS011;7851;52.260;6.030;2022-12-18T04:36:26;24.2;;;17.2;;
15498;SDS011;7851;52.260;6.030;2022-12-18T04:37:26;27.8;;;18.5;;
15498;SDS011;7851;52.260;6.030;2022-12-18T04:38:26;33;;;19.2;;
15498;SDS011;7851;52.260;6.030;2022-12-18T04:39:26;25.6;;;18.2;;
15498;SDS011;7851;52.260;6.030;2022-12-18T04:40:26;24.6;;;18.1;;
15498;SDS011;7851;52.260;6.030;2022-12-18T04:41:26;23.8;;;16.9;;
15498;SDS011;7851;52.260;6.030;2022-12-18T04:42:26;24.4;;;17.5;;
15498;SDS011;7851;52.260;6.030;2022-12-18T04:43:26;25.5;;;17.6;;
15498;SDS011;7851;52.260;6.030;2022-12-18T04:44:26;26.2;;;17.3;;
15498;SDS011;7851;52.260;6.030;2022-12-18T04:45:26;23.8;;;16.7;;
15498;SDS011;7851;52.260;6.030;2022-12-18T04:46:26;23.1;;;16.5;;
15498;SDS011;7851;52.260;6.030;2022-12-18T04:47:26;30;;;18;;
15498;SDS011;7851;52.260;6.030;2022-12-18T04:48:26;39;;;17.6;;
15498;SDS011;7851;52.260;6.030;2022-12-18T04:49:26;27.5;;;16;;
15498;SDS011;7851;52.260;6.030;2022-12-18T04:50:26;24.1;;;16.7;;
15498;SDS011;7851;52.260;6.030;2022-12-18T04:51:26;28.3;;;16.8;;
15498;SDS011;7851;52.260;6.030;2022-12-18T04:52:26;24.4;;;16.8;;
15498;SDS011;7851;52.260;6.030;2022-12-18T04:53:26;23.3;;;16.3;;
15498;SDS011;7851;52.260;6.030;2022-12-18T04:54:26;27.3;;;17.3;;
15498;SDS011;7851;52.260;6.030;2022-12-18T04:55:26;21.6;;;15.4;;
15498;SDS011;7851;52.260;6.030;2022-12-18T04:56:26;23.4;;;16.5;;
15498;SDS011;7851;52.260;6.030;2022-12-18T04:57:26;22.7;;;16.2;;
15498;SDS011;7851;52.260;6.030;2022-12-18T04:58:26;20.6;;;15.6;;
15498;SDS011;7851;52.260;6.030;2022-12-18T04:59:26;21.2;;;16.2;;
15498;SDS011;7851;52.260;6.030;2022-12-18T05:00:26;24.9;;;16;;
15498;SDS011;7851;52.260;6.030;2022-12-18T05:01:26;20.7;;;16;;
15498;SDS011;7851;52.260;6.030;2022-12-18T05:02:26;28.3;;;16.6;;
15498;SDS011;7851;52.260;6.030;2022-12-18T05:03:26;23.8;;;16.5;;
15498;SDS011;7851;52.260;6.030;2022-12-18T05:04:26;23.4;;;15.9;;
15498;SDS011;7851;52.260;6.030;2022-12-18T05:05:26;22.8;;;16.1;;
15498;SDS011;7851;52.260;6.030;2022-12-18T05:06:26;19.2;;;15.4;;
15498;SDS011;7851;52.260;6.030;2022-12-18T05:07:26;23.6;;;14.8;;
15498;SDS011;7851;52.260;6.030;2022-12-18T05:08:26;22.6;;;15.3;;
15498;SDS011;7851;52.260;6.030;2022-12-18T05:09:26;21;;;15.1;;
15498;SDS011;7851;52.260;6.030;2022-12-18T05:10:26;22.2;;;16.1;;
15498;SDS011;7851;52.260;6.030;2022-12-18T05:11:26;20.7;;;15.1;;
15498;SDS011;7851;52.260;6.030;2022-12-18T05:12:26;23.1;;;15.2;;
15498;SDS011;7851;52.260;6.030;2022-12-18T05:13:26;24.8;;;15;;
15498;SDS011;7851;52.260;6.030;2022-12-18T05:14:26;17.5;;;14.2;;
15498;SDS011;7851;52.260;6.030;2022-12-18T05:15:27;21.4;;;15.3;;
15498;SDS011;7851;52.260;6.030;2022-12-18T05:16:26;20.7;;;14.5;;
15498;SDS011;7851;52.260;6.030;2022-12-18T05:17:26;20.4;;;14.9;;
15498;SDS011;7851;52.260;6.030;2022-12-18T05:18:26;21.9;;;15.3;;
15498;SDS011;7851;52.260;6.030;2022-12-18T05:19:26;20.5;;;15.3;;
15498;SDS011;7851;52.260;6.030;2022-12-18T05:20:27;21.5;;;14.7;;
15498;SDS011;7851;52.260;6.030;2022-12-18T05:21:26;18.2;;;13.6;;
15498;SDS011;7851;52.260;6.030;2022-12-18T05:22:26;20.9;;;15;;
15498;SDS011;7851;52.260;6.030;2022-12-18T05:23:26;17.3;;;13.6;;
15498;SDS011;7851;52.260;6.030;2022-12-18T05:24:26;20.2;;;14.6;;
15498;SDS011;7851;52.260;6.030;2022-12-18T05:25:26;18.9;;;14.5;;
15498;SDS011;7851;52.260;6.030;2022-12-18T05:26:26;24.3;;;15.5;;
15498;SDS011;7851;52.260;6.030;2022-12-18T05:27:26;21.6;;;15.6;;
15498;SDS011;7851;52.260;6.030;2022-12-18T05:28:27;19.4;;;13.9;;
15498;SDS011;7851;52.260;6.030;2022-12-18T05:29:26;20.6;;;14;;
15498;SDS011;7851;52.260;6.030;2022-12-18T05:30:26;19.8;;;14.5;;
15498;SDS011;7851;52.260;6.030;2022-12-18T05:31:26;25.5;;;15.3;;
15498;SDS011;7851;52.260;6.030;2022-12-18T05:32:26;18.6;;;13.3;;
15498;SDS011;7851;52.260;6.030;2022-12-18T05:33:27;21.5;;;15.2;;
15498;SDS011;7851;52.260;6.030;2022-12-18T05:34:26;16.1;;;13.6;;
15498;SDS011;7851;52.260;6.030;2022-12-18T05:35:26;21;;;14.3;;
15498;SDS011;7851;52.260;6.030;2022-12-18T05:36:26;15.3;;;13.3;;
15498;SDS011;7851;52.260;6.030;2022-12-18T05:37:26;17.3;;;13.6;;
15498;SDS011;7851;52.260;6.030;2022-12-18T05:38:26;19;;;13;;
15498;SDS011;7851;52.260;6.030;2022-12-18T05:39:26;17.3;;;13.2;;
15498;SDS011;7851;52.260;6.030;2022-12-18T05:40:26;17;;;13.4;;
15498;SDS011;7851;52.260;6.030;2022-12-18T05:41:26;18.8;;;13.3;;
15498;SDS011;7851;52.260;6.030;2022-12-18T05:42:26;16.7;;;13.1;;
15498;SDS011;7851;52.260;6.030;2022-12-18T05:43:26;17.9;;;12.9;;
15498;SDS011;7851;52.260;6.030;2022-12-18T05:44:26;19.5;;;14.2;;
15498;SDS011;7851;52.260;6.030;2022-12-18T05:45:26;18.6;;;14.3;;
15498;SDS011;7851;52.260;6.030;2022-12-18T05:46:26;24.1;;;13.9;;
15498;SDS011;7851;52.260;6.030;2022-12-18T05:47:26;20;;;13.4;;
15498;SDS011;7851;52.260;6.030;2022-12-18T05:48:26;24.1;;;14.8;;
15498;SDS011;7851;52.260;6.030;2022-12-18T05:49:26;28.9;;;13.2;;
15498;SDS011;7851;52.260;6.030;2022-12-18T05:50:26;20.6;;;14.3;;
15498;SDS011;7851;52.260;6.030;2022-12-18T05:51:26;18.1;;;13.2;;
15498;SDS011;7851;52.260;6.030;2022-12-18T05:52:26;18.4;;;13.9;;
15498;SDS011;7851;52.260;6.030;2022-12-18T05:53:26;16.9;;;13.3;;
15498;SDS011;7851;52.260;6.030;2022-12-18T05:54:26;18.9;;;14;;
15498;SDS011;7851;52.260;6.030;2022-12-18T05:55:26;20.6;;;14.1;;
15498;SDS011;7851;52.260;6.030;2022-12-18T05:56:26;26.9;;;16.2;;
15498;SDS011;7851;52.260;6.030;2022-12-18T05:57:26;20.2;;;15.3;;
15498;SDS011;7851;52.260;6.030;2022-12-18T05:58:26;28.3;;;13.4;;
15498;SDS011;7851;52.260;6.030;2022-12-18T05:59:26;24.7;;;15.1;;
15498;SDS011;7851;52.260;6.030;2022-12-18T06:00:26;23.2;;;14.4;;
15498;SDS011;7851;52.260;6.030;2022-12-18T06:01:26;18.1;;;13.7;;
15498;SDS011;7851;52.260;6.030;2022-12-18T06:02:26;19.3;;;13.3;;
15498;SDS011;7851;52.260;6.030;2022-12-18T06:03:26;20.8;;;15;;
15498;SDS011;7851;52.260;6.030;2022-12-18T06:04:26;24.7;;;15.1;;
15498;SDS011;7851;52.260;6.030;2022-12-18T06:05:26;19.8;;;15;;
15498;SDS011;7851;52.260;6.030;2022-12-18T06:06:27;20.6;;;15;;
15498;SDS011;7851;52.260;6.030;2022-12-18T06:07:26;20.6;;;15.2;;
15498;SDS011;7851;52.260;6.030;2022-12-18T06:08:26;21.7;;;14.8;;
15498;SDS011;7851;52.260;6.030;2022-12-18T06:09:26;18.8;;;14.7;;
15498;SDS011;7851;52.260;6.030;2022-12-18T06:10:26;16.8;;;13.7;;